Time;durP1;ratioP1;P1;durP2;ratioP2;P2;SDS_P1;SDS_P2;PMS_P1;PMS_P2;Temp;Humidity;BMP_temperature;BMP_pressure;BME280_temperature;BME280_humidity;BME280_pressure;Samples;Min_cycle;Max_cycle;Signal;HPM_P1;HPM_P2
2022/08/25 00:01:32;;;;;;;17.92;8.98;;;;;;;21.58;71.13;94529.59;4172122;28;20057;-68
2022/08/25 00:03:34;;;;;;;25.98;10.43;;;;;;;21.59;71.28;94530.41;4126170;28;20656;-69
2022/08/25 00:05:40;;;;;;;22.92;8.70;;;;;;;21.58;71.40;94532.25;4173160;28;20091;-68
2022/08/25 00:07:42;;;;;;;18.88;9.02;;;;;;;21.55;71.15;94529.25;4172806;28;20053;-69
2022/08/25 00:09:44;;;;;;;18.17;9.60;;;;;;;21.54;71.37;94527.63;4172205;28;20519;-69
2022/08/25 00:11:50;;;;;;;21.98;9.32;;;;;;;21.52;71.27;94535.03;4175583;28;20540;-68
2022/08/25 00:13:57;;;;;;;21.70;10.38;;;;;;;21.52;71.53;94535.03;4142433;28;20125;-69
2022/08/25 00:16:02;;;;;;;21.33;10.27;;;;;;;21.48;71.76;94524.03;4168549;28;20107;-68
2022/08/25 00:18:04;;;;;;;18.52;9.88;;;;;;;21.52;71.50;94530.53;4169657;28;20049;-70
2022/08/25 00:20:21;;;;;;;22.67;9.45;;;;;;;21.55;71.23;94535.38;4168672;28;20049;-71
2022/08/25 00:22:23;;;;;;;22.08;8.77;;;;;;;21.58;71.20;94523.47;4174885;28;20131;-69
2022/08/25 00:24:30;;;;;;;20.20;8.48;;;;;;;21.59;71.02;94527.75;4158962;28;20575;-69
2022/08/25 00:26:32;;;;;;;21.42;8.85;;;;;;;21.57;70.93;94525.28;4180432;28;20053;-69
2022/08/25 00:28:35;;;;;;;18.67;8.65;;;;;;;21.59;70.83;94519.75;4156249;28;20378;-70
2022/08/25 00:30:38;;;;;;;23.13;10.18;;;;;;;21.62;71.24;94519.28;4175591;28;20099;-69
2022/08/25 00:32:40;;;;;;;18.13;9.48;;;;;;;21.64;71.13;94514.53;4164188;28;20045;-69
2022/08/25 00:35:07;;;;;;;21.20;9.30;;;;;;;21.66;70.68;94515.94;4162060;28;20483;-68
2022/08/25 00:41:16;;;;;;;;;;;;;;;;;;;;;
2022/08/25 00:43:24;;;;;;;22.02;9.55;;;;;;;21.63;71.08;94516.38;4174947;28;20108;-69
2022/08/25 00:45:54;;;;;;;;;;;;;;;;;;;;;
2022/08/25 00:47:57;;;;;;;15.40;9.10;;;;;;;21.65;70.54;94527.63;4171269;28;20376;-68
2022/08/25 00:50:00;;;;;;;;;;;;;;;21.60;71.10;94527.50;4178529;28;20049;-69
2022/08/25 00:52:07;;;;;;;17.83;9.23;;;;;;;21.52;71.64;94532.38;4162928;28;20432;-69
2022/08/25 00:54:14;;;;;;;17.58;9.35;;;;;;;21.50;71.98;94537.13;4148480;28;20465;-70
2022/08/25 00:56:17;;;;;;;20.85;10.90;;;;;;;21.50;71.78;94527.28;4163959;28;20045;-69
2022/08/25 00:58:24;;;;;;;25.08;9.13;;;;;;;21.47;71.79;94530.41;4184207;28;20127;-69
2022/08/25 01:00:35;;;;;;;19.25;8.65;;;;;;;21.47;71.85;94525.09;4158737;28;20080;-70
2022/08/25 01:02:43;;;;;;;18.65;8.80;;;;;;;21.48;72.04;94524.81;4158045;28;20072;-69
2022/08/25 01:04:46;;;;;;;20.00;8.88;;;;;;;21.54;71.72;94519.63;4168709;28;20056;-70
2022/08/25 01:06:50;;;;;;;20.58;9.43;;;;;;;21.57;71.47;94514.63;4163944;28;20094;-69
2022/08/25 01:08:53;;;;;;;27.08;9.45;;;;;;;21.56;71.74;94505.03;4166731;28;20157;-69
2022/08/25 01:11:01;;;;;;;14.70;8.38;;;;;;;21.62;71.36;94498.78;4151660;28;20199;-70
2022/08/25 01:13:08;;;;;;;19.58;9.32;;;;;;;21.64;71.27;94496.69;4162701;28;20496;-70
2022/08/25 01:15:17;;;;;;;22.52;8.85;;;;;;;21.65;71.39;94492.97;4158384;28;20061;-70
2022/08/25 01:17:20;;;;;;;29.50;9.35;;;;;;;21.67;71.45;94493.53;4166486;28;20061;-70
2022/08/25 01:19:22;;;;;;;20.08;9.63;;;;;;;21.66;71.49;94496.44;4175036;28;20343;-71
2022/08/25 01:21:26;;;;;;;22.30;9.35;;;;;;;21.59;71.69;94493.88;4157938;28;20132;-68
2022/08/25 01:23:28;;;;;;;;;;;;;;;21.02;73.36;94498.94;4175819;28;20128;-69
2022/08/25 01:25:41;;;;;;;22.40;10.27;;;;;;;20.58;75.26;94498.31;4188517;28;20073;-68
2022/08/25 01:27:43;;;;;;;20.90;10.60;;;;;;;20.34;76.08;94494.72;4172324;28;20083;-71
2022/08/25 01:29:45;;;;;;;27.75;11.20;;;;;;;19.96;78.02;94501.94;4168320;28;20514;-71
2022/08/25 01:31:48;;;;;;;22.67;10.43;;;;;;;19.81;78.33;94498.81;4150032;28;20078;-69
2022/08/25 01:33:50;;;;;;;23.42;10.13;;;;;;;19.68;78.85;94498.94;4172310;28;20059;-71
2022/08/25 01:35:53;;;;;;;21.20;10.27;;;;;;;19.61;79.09;94505.13;4161026;28;20053;-71
2022/08/25 01:37:55;;;;;;;21.17;10.82;;;;;;;19.55;79.31;94508.69;4174976;28;20131;-69
2022/08/25 01:39:57;;;;;;;20.95;9.75;;;;;;;19.28;80.28;94499.31;4166032;28;20445;-70
2022/08/25 01:42:05;;;;;;;27.65;10.40;;;;;;;19.26;80.14;94499.53;4170840;28;20048;-69
2022/08/25 01:44:07;;;;;;;21.70;9.57;;;;;;;19.19;80.22;94496.13;4173157;28;20049;-69
2022/08/25 01:46:16;;;;;;;20.42;10.02;;;;;;;19.20;80.27;94498.56;4156684;28;20154;-68
2022/08/25 01:48:18;;;;;;;18.90;9.57;;;;;;;19.17;80.00;94492.88;4156547;28;20425;-69
2022/08/25 01:50:20;;;;;;;22.02;9.55;;;;;;;19.16;80.12;94502.66;4174306;28;20123;-69
2022/08/25 01:52:33;;;;;;;18.88;9.52;;;;;;;19.29;79.72;94496.44;4155344;28;20083;-70
2022/08/25 01:54:35;;;;;;;22.23;9.70;;;;;;;19.44;79.38;94504.06;4150571;28;20046;-70
2022/08/25 01:56:37;;;;;;;18.48;9.07;;;;;;;19.59;78.68;94507.19;4170709;28;20540;-71
2022/08/25 01:58:48;;;;;;;23.73;8.93;;;;;;;19.68;78.09;94505.09;4174009;28;20155;-70
2022/08/25 02:00:53;;;;;;;22.33;9.75;;;;;;;19.75;78.06;94502.38;4172182;28;20060;-69
2022/08/25 02:02:55;;;;;;;24.30;9.50;;;;;;;19.85;77.61;94497.34;4155778;28;20053;-69
2022/08/25 02:04:57;;;;;;;18.67;9.10;;;;;;;19.91;77.23;94493.81;4170802;28;20054;-70
2022/08/25 02:07:03;;;;;;;22.77;9.27;;;;;;;20.06;76.91;94488.13;4162292;28;20122;-70
2022/08/25 02:09:08;;;;;;;20.50;9.68;;;;;;;20.12;76.12;94492.53;4173974;28;20059;-70
2022/08/25 02:11:12;;;;;;;22.17;8.98;;;;;;;20.13;75.93;94490.69;4173152;28;20165;-69
2022/08/25 02:13:14;;;;;;;17.38;8.57;;;;;;;20.15;75.93;94489.44;4172979;28;20045;-69
2022/08/25 02:15:16;;;;;;;25.40;9.05;;;;;;;20.25;75.82;94496.88;4170089;28;20050;-69
2022/08/25 02:17:18;;;;;;;19.35;8.77;;;;;;;20.22;75.61;94489.38;4164024;28;20135;-69
2022/08/25 02:19:22;;;;;;;26.83;8.57;;;;;;;20.06;76.09;94485.47;4155659;28;20497;-70
2022/08/25 02:21:24;;;;;;;21.00;9.07;;;;;;;20.02;76.16;94481.63;4156769;28;20679;-70
2022/08/25 02:23:26;;;;;;;21.95;9.15;;;;;;;19.96;76.49;94486.00;4165359;28;20127;-69
2022/08/25 02:25:29;;;;;;;15.77;9.05;;;;;;;20.02;76.56;94490.41;4176160;28;20057;-70
2022/08/25 02:27:30;;;;;;;20.13;9.23;;;;;;;20.10;76.20;94483.97;4155650;28;20401;-69
2022/08/25 02:29:32;;;;;;;28.10;9.45;;;;;;;20.23;76.01;94485.66;4174688;28;20052;-70
2022/08/25 02:31:35;;;;;;;13.52;7.90;;;;;;;20.35;75.48;94481.22;4175179;28;20076;-71
2022/08/25 02:33:37;;;;;;;17.80;8.15;;;;;;;20.48;74.96;94477.56;4173251;28;20045;-71
2022/08/25 02:35:39;;;;;;;21.00;8.82;;;;;;;20.58;74.33;94480.50;4141558;28;20058;-69
2022/08/25 02:37:41;;;;;;;22.05;8.15;;;;;;;20.65;73.85;94477.78;4164490;28;20361;-70
2022/08/25 02:39:43;;;;;;;24.27;8.20;;;;;;;20.71;73.70;94481.34;4175030;28;20443;-69
2022/08/25 02:41:45;;;;;;;24.58;8.85;;;;;;;20.74;73.62;94475.59;4162530;28;20058;-69
2022/08/25 02:43:48;;;;;;;24.15;8.15;;;;;;;20.83;73.37;94484.88;4155218;28;20055;-69
2022/08/25 02:45:55;;;;;;;14.70;8.18;;;;;;;20.88;72.89;94486.84;4158936;28;20046;-69
2022/08/25 02:47:57;;;;;;;13.85;8.15;;;;;;;20.85;72.72;94478.28;4161795;28;20061;-70
2022/08/25 02:49:59;;;;;;;27.48;9.07;;;;;;;20.87;72.68;94486.03;4170616;28;20078;-69
2022/08/25 02:52:01;;;;;;;20.05;8.10;;;;;;;20.86;72.53;94477.25;4172716;28;20161;-70
2022/08/25 02:54:04;;;;;;;16.38;8.15;;;;;;;20.89;72.92;94485.78;4176187;28;21232;-69
2022/08/25 02:56:09;;;;;;;14.68;7.80;;;;;;;20.88;72.49;94479.66;4166519;28;20284;-70
2022/08/25 02:58:11;;;;;;;21.33;8.15;;;;;;;20.89;72.50;94491.97;4158086;28;20544;-70
2022/08/25 03:00:14;;;;;;;18.95;7.68;;;;;;;20.90;72.30;94492.75;4169126;28;20082;-69
2022/08/25 03:02:16;;;;;;;17.63;7.75;;;;;;;20.92;72.47;94499.47;4171787;28;20083;-68
2022/08/25 03:04:18;;;;;;;19.10;8.63;;;;;;;20.94;72.44;94499.25;4173341;28;20048;-70
2022/08/25 03:06:22;;;;;;;23.23;7.80;;;;;;;20.93;72.38;94498.44;4175982;28;20396;-70
2022/08/25 03:08:24;;;;;;;18.92;8.98;;;;;;;20.95;72.27;94501.69;4175577;28;20437;-68
2022/08/25 03:10:26;;;;;;;21.33;8.00;;;;;;;20.92;72.25;94496.81;4159096;28;20444;-69
2022/08/25 03:12:29;;;;;;;14.80;7.68;;;;;;;20.98;72.08;94500.41;4173382;28;20055;-69
2022/08/25 03:14:32;;;;;;;15.73;7.15;;;;;;;21.00;71.72;94496.50;4175165;28;20382;-67
2022/08/25 03:16:34;;;;;;;22.58;8.02;;;;;;;21.03;71.73;94490.69;4155725;28;20112;-68
2022/08/25 03:18:37;;;;;;;19.55;8.77;;;;;;;21.06;71.70;94492.09;4158623;28;20139;-69
2022/08/25 03:20:40;;;;;;;18.38;7.93;;;;;;;21.03;71.99;94488.03;4174621;28;20114;-69
2022/08/25 03:22:43;;;;;;;18.95;8.13;;;;;;;21.05;71.96;94493.94;4166963;28;20072;-69
2022/08/25 03:24:44;;;;;;;25.33;8.15;;;;;;;21.02;72.00;94488.28;4156295;28;20055;-68
2022/08/25 03:26:53;;;;;;;18.08;8.00;;;;;;;21.01;71.90;94489.31;4174884;28;20053;-70
2022/08/25 03:28:55;;;;;;;13.95;7.55;;;;;;;21.04;72.00;94499.50;4175993;28;20122;-69
2022/08/25 03:30:59;;;;;;;26.85;8.38;;;;;;;21.07;72.02;94496.38;4176367;28;20049;-69
2022/08/25 03:33:01;;;;;;;19.05;8.38;;;;;;;21.07;72.00;94494.53;4161986;28;20053;-70
2022/08/25 03:35:03;;;;;;;17.77;8.35;;;;;;;21.05;71.69;94493.13;4165193;28;20046;-69
2022/08/25 03:37:07;;;;;;;20.48;8.40;;;;;;;21.07;72.10;94499.03;4162326;28;20052;-69
2022/08/25 03:39:09;;;;;;;21.80;8.18;;;;;;;21.09;72.01;94504.16;4162505;28;20057;-69
2022/08/25 03:41:15;;;;;;;22.75;8.73;;;;;;;21.11;71.74;94502.88;4170549;28;20060;-69
2022/08/25 03:43:17;;;;;;;15.52;7.95;;;;;;;21.14;71.57;94497.06;4175703;28;20132;-69
2022/08/25 03:45:19;;;;;;;19.85;8.48;;;;;;;21.17;71.54;94495.81;4163722;28;20403;-68
2022/08/25 03:47:24;;;;;;;18.92;7.95;;;;;;;21.22;71.34;94499.41;4174102;28;20118;-68
2022/08/25 03:49:26;;;;;;;16.98;7.80;;;;;;;21.26;71.46;94495.25;4160445;28;20104;-68
2022/08/25 03:51:34;;;;;;;21.08;8.38;;;;;;;21.26;71.31;94483.78;4148489;28;20057;-69
2022/08/25 03:53:36;;;;;;;23.00;8.57;;;;;;;21.25;71.39;94482.97;4172701;28;20056;-69
2022/08/25 03:55:41;;;;;;;25.50;9.02;;;;;;;21.23;71.09;94482.41;4174284;28;20167;-69
2022/08/25 03:57:43;;;;;;;18.77;8.38;;;;;;;21.17;71.69;94485.19;4156023;28;20414;-69
2022/08/25 03:59:45;;;;;;;20.15;8.88;;;;;;;21.20;71.78;94487.38;4174264;28;20052;-68
2022/08/25 04:01:48;;;;;;;27.70;9.25;;;;;;;21.19;71.51;94493.75;4173947;28;20049;-68
2022/08/25 04:03:55;;;;;;;20.40;8.77;;;;;;;21.15;71.63;94480.06;4167811;28;20458;-69
2022/08/25 04:06:02;;;;;;;14.30;8.00;;;;;;;21.17;71.63;94485.19;4174708;28;20057;-68
2022/08/25 04:08:05;;;;;;;18.17;8.80;;;;;;;21.19;71.53;94489.22;4169498;28;20554;-70
2022/08/25 04:10:09;;;;;;;27.00;8.60;;;;;;;21.09;72.06;94482.84;4168550;28;20045;-68
2022/08/25 04:12:15;;;;;;;19.17;8.10;;;;;;;21.10;72.00;94490.63;4162849;28;20052;-69
2022/08/25 04:14:20;;;;;;;16.25;8.63;;;;;;;21.11;72.05;94489.56;4170993;28;20468;-68
2022/08/25 04:16:30;;;;;;;17.23;8.27;;;;;;;21.13;71.93;94490.13;4164536;28;20123;-70
2022/08/25 04:18:33;;;;;;;21.48;9.15;;;;;;;21.15;71.53;94484.59;4156963;28;20053;-68
2022/08/25 04:20:35;;;;;;;18.33;9.02;;;;;;;21.20;71.36;94485.50;4162839;28;20402;-68
2022/08/25 04:22:37;;;;;;;18.25;8.45;;;;;;;21.24;71.49;94486.66;4157744;28;20381;-69
2022/08/25 04:24:45;;;;;;;16.65;8.95;;;;;;;21.26;71.47;94476.59;4169703;28;20152;-68
2022/08/25 04:26:49;;;;;;;19.90;9.65;;;;;;;21.13;71.87;94484.81;4161653;28;20523;-70
2022/08/25 04:28:52;;;;;;;23.25;9.57;;;;;;;20.96;72.50;94481.19;4171143;28;20088;-69
2022/08/25 04:30:57;;;;;;;19.17;8.90;;;;;;;20.93;72.83;94474.47;4164901;28;20062;-68
2022/08/25 04:32:59;;;;;;;23.65;10.15;;;;;;;20.86;73.10;94469.25;4166052;28;20080;-68
2022/08/25 04:35:01;;;;;;;22.60;9.50;;;;;;;20.82;73.37;94473.41;4167624;28;20466;-69
2022/08/25 04:37:06;;;;;;;16.88;8.95;;;;;;;20.91;73.13;94475.72;4171839;28;20053;-67
2022/08/25 04:39:08;;;;;;;22.55;10.93;;;;;;;20.91;73.00;94481.06;4174300;28;20130;-69
2022/08/25 04:41:14;;;;;;;20.13;9.18;;;;;;;20.94;72.75;94478.75;4174677;28;20057;-67
2022/08/25 04:43:15;;;;;;;19.48;8.73;;;;;;;21.05;72.43;94483.28;4148429;28;20517;-68
2022/08/25 04:45:30;;;;;;;18.42;9.35;;;;;;;21.20;71.96;94490.03;4172277;28;20052;-67
2022/08/25 04:47:37;;;;;;;22.70;9.52;;;;;;;21.28;71.41;94487.03;4173135;28;20183;-69
2022/08/25 04:49:39;;;;;;;19.65;9.23;;;;;;;21.34;71.01;94482.63;4161391;28;20107;-68
2022/08/25 04:51:41;;;;;;;23.10;11.05;;;;;;;21.40;70.93;94489.69;4179719;28;20055;-69
2022/08/25 04:53:43;;;;;;;17.02;9.73;;;;;;;21.28;71.08;94495.81;4177190;28;20103;-68
2022/08/25 04:55:46;;;;;;;15.27;9.77;;;;;;;21.32;70.99;94495.38;4173872;28;20053;-69
2022/08/25 04:57:48;;;;;;;21.63;10.82;;;;;;;21.25;71.00;94498.97;4168739;28;20053;-68
2022/08/25 04:59:51;;;;;;;21.23;10.43;;;;;;;21.25;71.32;94493.63;4179510;28;20060;-68
2022/08/25 05:01:53;;;;;;;25.08;10.75;;;;;;;21.28;70.90;94493.16;4180774;28;20264;-69
2022/08/25 05:03:58;;;;;;;22.60;9.65;;;;;;;21.36;70.81;94499.19;4177878;28;20565;-69
2022/08/25 05:06:04;;;;;;;22.45;9.98;;;;;;;21.45;70.48;94497.84;4177676;28;20460;-69
2022/08/25 05:08:33;;;;;;;27.38;10.20;;;;;;;21.60;70.05;94498.19;4175627;28;20589;-68
2022/08/25 05:10:39;;;;;;;19.10;8.98;;;;;;;21.73;69.21;94505.16;4171979;28;20052;-68
2022/08/25 05:12:43;;;;;;;24.00;10.15;;;;;;;21.59;69.54;94503.75;4177072;28;20137;-68
2022/08/25 05:14:51;;;;;;;22.63;9.13;;;;;;;21.46;69.07;94489.59;4174568;28;20041;-70
2022/08/25 05:16:56;;;;;;;17.75;9.05;;;;;;;21.31;69.36;94491.09;4170276;28;20098;-68
2022/08/25 05:18:59;;;;;;;20.45;9.02;;;;;;;21.25;69.68;94487.47;4179981;28;20055;-70
2022/08/25 05:21:04;;;;;;;20.98;9.32;;;;;;;21.25;70.09;94482.97;4173212;28;20106;-69
2022/08/25 05:23:09;;;;;;;20.70;8.77;;;;;;;21.34;70.05;94488.78;4156121;28;20104;-70
2022/08/25 05:25:11;;;;;;;19.45;9.88;;;;;;;21.44;69.83;94488.22;4160729;28;20473;-69
2022/08/25 05:27:13;;;;;;;19.10;9.90;;;;;;;21.52;69.67;94492.41;4163800;28;20060;-68
2022/08/25 05:29:16;;;;;;;24.42;9.00;;;;;;;21.52;68.99;94485.22;4174858;28;20132;-69
2022/08/25 05:31:19;;;;;;;18.83;9.07;;;;;;;21.58;69.22;94486.94;4160340;28;20160;-69
2022/08/25 05:33:21;;;;;;;18.08;8.88;;;;;;;21.57;68.56;94477.31;4163339;28;20367;-69
2022/08/25 05:35:24;;;;;;;17.83;8.85;;;;;;;21.60;68.98;94476.88;4177645;28;20051;-70
2022/08/25 05:37:25;;;;;;;19.35;9.35;;;;;;;21.64;68.88;94477.22;4184549;28;20056;-70
2022/08/25 05:39:31;;;;;;;21.48;9.77;;;;;;;21.72;69.04;94484.84;4181891;28;20044;-69
2022/08/25 05:41:33;;;;;;;27.85;9.63;;;;;;;21.77;68.99;94489.47;4174209;28;20102;-68
2022/08/25 05:43:36;;;;;;;24.85;9.52;;;;;;;21.85;68.43;94489.13;4163653;28;20054;-69
2022/08/25 05:45:39;;;;;;;25.58;9.88;;;;;;;21.90;68.23;94494.56;4174224;28;20420;-69
2022/08/25 05:47:41;;;;;;;23.30;8.98;;;;;;;21.93;67.96;94494.09;4174811;28;20520;-68
2022/08/25 05:49:44;;;;;;;18.25;8.50;;;;;;;21.92;67.91;94483.66;4173399;28;20124;-69
2022/08/25 05:51:46;;;;;;;21.90;9.25;;;;;;;21.88;67.78;94492.13;4173876;28;20172;-69
2022/08/25 05:53:49;;;;;;;19.25;8.73;;;;;;;21.81;68.12;94487.97;4169651;28;20110;-69
2022/08/25 05:55:52;;;;;;;19.08;9.27;;;;;;;21.82;68.48;94492.25;4169323;28;20040;-69
2022/08/25 05:57:54;;;;;;;22.63;9.57;;;;;;;21.83;68.13;94504.53;4166615;28;20095;-69
2022/08/25 05:59:56;;;;;;;32.88;10.15;;;;;;;21.94;67.92;94486.91;4173871;28;20049;-69
2022/08/25 06:04:21;;;;;;;18.52;9.43;;;;;;;22.04;67.57;94493.25;4168443;28;20053;-69
2022/08/25 06:06:23;;;;;;;19.10;8.85;;;;;;;21.95;67.70;94485.88;4159627;28;20469;-69
2022/08/25 06:08:29;;;;;;;20.27;9.13;;;;;;;21.97;67.83;94489.13;4170608;28;20444;-69
2022/08/25 06:10:31;;;;;;;23.80;8.57;;;;;;;21.97;68.13;94489.91;4172690;28;20555;-67
2022/08/25 06:12:40;;;;;;;23.88;8.45;;;;;;;22.07;67.66;94508.81;4171695;28;20053;-68
2022/08/25 06:14:44;;;;;;;21.42;8.90;;;;;;;22.11;67.76;94495.78;4141713;28;20049;-68
2022/08/25 06:16:48;;;;;;;18.75;9.18;;;;;;;22.15;67.61;94501.47;4172031;28;20136;-68
2022/08/25 06:18:50;;;;;;;16.60;8.52;;;;;;;22.12;67.13;94497.44;4174334;28;20053;-69
2022/08/25 06:20:52;;;;;;;18.45;8.88;;;;;;;22.07;67.62;94492.00;4177933;28;20049;-68
2022/08/25 06:22:55;;;;;;;19.48;9.55;;;;;;;22.05;67.27;94489.56;4177237;28;20128;-70
2022/08/25 06:24:57;;;;;;;15.60;9.07;;;;;;;22.09;67.48;94489.88;4161196;28;20088;-69
2022/08/25 06:26:59;;;;;;;24.52;9.80;;;;;;;22.18;67.17;94488.47;4171870;28;20427;-70
2022/08/25 06:29:01;;;;;;;23.85;9.73;;;;;;;22.23;67.25;94477.13;4181015;28;20567;-69
2022/08/25 06:31:04;;;;;;;17.85;9.55;;;;;;;22.38;67.21;94485.44;4176546;28;20111;-68
2022/08/25 06:33:06;;;;;;;21.88;9.48;;;;;;;22.38;66.95;94490.75;4179441;28;20091;-67
2022/08/25 06:35:11;;;;;;;18.52;8.90;;;;;;;22.37;66.46;94483.81;4177003;28;20049;-69
2022/08/25 06:37:13;;;;;;;24.13;9.13;;;;;;;22.43;66.32;94488.19;4172721;28;20053;-70
2022/08/25 06:39:15;;;;;;;16.77;9.25;;;;;;;22.55;66.42;94490.03;4175845;28;20056;-69
2022/08/25 06:41:17;;;;;;;21.55;9.18;;;;;;;22.53;66.36;94492.13;4177439;28;20052;-68
2022/08/25 06:43:20;;;;;;;21.10;9.57;;;;;;;22.44;66.61;94487.16;4177159;28;20106;-69
2022/08/25 06:45:21;;;;;;;21.75;9.70;;;;;;;22.52;66.67;94479.81;4178020;28;20415;-69
2022/08/25 06:47:23;;;;;;;14.90;8.55;;;;;;;22.61;66.72;94481.88;4175398;28;20111;-71
2022/08/25 06:49:27;;;;;;;23.17;10.05;;;;;;;22.74;65.97;94487.97;4177695;28;20121;-70
2022/08/25 06:51:34;;;;;;;23.05;9.93;;;;;;;22.70;65.57;94492.97;4168034;28;20152;-68
2022/08/25 06:53:37;;;;;;;20.88;9.50;;;;;;;22.53;65.95;94494.78;4174224;28;20084;-68
2022/08/25 06:55:39;;;;;;;16.38;8.90;;;;;;;22.57;66.07;94493.25;4175236;28;20424;-69
2022/08/25 06:57:41;;;;;;;16.77;9.10;;;;;;;22.70;66.04;94485.75;4176081;28;20365;-69
2022/08/25 06:59:43;;;;;;;24.50;9.27;;;;;;;22.96;65.06;94486.22;4176499;28;20504;-69
2022/08/25 07:01:45;;;;;;;18.27;8.85;;;;;;;23.10;64.04;94489.38;4175825;28;20057;-70
2022/08/25 07:03:50;;;;;;;19.35;9.30;;;;;;;23.05;64.65;94492.00;4175531;28;20404;-70
2022/08/25 07:05:55;;;;;;;21.35;9.15;;;;;;;23.22;63.72;94478.66;4174428;28;20051;-70
2022/08/25 07:07:57;;;;;;;17.35;9.52;;;;;;;23.45;63.59;94477.66;4173805;28;20103;-69
2022/08/25 07:09:59;;;;;;;17.00;8.77;;;;;;;23.38;62.86;94488.53;4175683;28;20282;-69
2022/08/25 07:12:03;;;;;;;16.17;9.13;;;;;;;23.46;63.25;94484.63;4175617;28;20429;-69
2022/08/25 07:14:06;;;;;;;;;;;;;;;23.15;64.35;94486.81;4176009;28;20260;-69
2022/08/25 07:16:09;;;;;;;19.30;9.13;;;;;;;23.18;64.53;94486.31;4176198;28;20339;-69
2022/08/25 07:18:12;;;;;;;15.15;9.13;;;;;;;23.36;63.87;94481.78;4177829;28;20125;-69
2022/08/25 07:20:14;;;;;;;17.23;9.45;;;;;;;23.54;63.56;94481.53;4180666;28;20179;-69
2022/08/25 07:22:16;;;;;;;13.90;8.38;;;;;;;23.74;62.25;94483.69;4167660;28;20126;-70
2022/08/25 07:24:18;;;;;;;23.02;8.98;;;;;;;23.92;62.43;94488.00;4170467;28;20717;-69
2022/08/25 07:26:23;;;;;;;17.38;7.95;;;;;;;24.09;61.33;94486.06;4159231;28;20053;-69
2022/08/25 07:28:40;;;;;;;15.38;7.75;;;;;;;24.25;61.60;94481.69;4171641;28;20288;-69
2022/08/25 07:30:50;;;;;;;23.83;8.23;;;;;;;24.40;61.09;94473.03;4175457;28;20151;-68
2022/08/25 07:32:52;;;;;;;22.25;7.78;;;;;;;24.59;60.49;94475.44;4157686;28;20124;-69
2022/08/25 07:35:14;;;;;;;17.30;7.55;;;;;;;24.72;59.30;94480.38;4153349;28;20049;-68
2022/08/25 07:37:21;;;;;;;17.00;7.43;;;;;;;24.71;58.96;94473.38;4167912;28;20433;-69
2022/08/25 07:39:43;;;;;;;20.90;7.22;;;;;;;24.77;58.41;94469.69;4176209;28;20071;-69
2022/08/25 07:41:45;;;;;;;14.77;7.30;;;;;;;24.80;58.92;94477.25;4172650;28;20056;-70
2022/08/25 07:43:52;;;;;;;20.15;7.97;;;;;;;24.83;58.87;94476.72;4174646;28;20060;-72
2022/08/25 07:45:54;;;;;;;25.88;8.82;;;;;;;24.83;58.44;94475.94;4174796;28;20373;-69
2022/08/25 07:47:58;;;;;;;21.58;7.72;;;;;;;24.82;58.45;94479.66;4175534;28;20361;-67
2022/08/25 07:50:00;;;;;;;18.40;7.72;;;;;;;24.81;58.53;94480.72;4176073;28;20141;-69
2022/08/25 07:52:06;;;;;;;20.80;7.78;;;;;;;24.70;58.84;94487.84;4173059;28;20528;-69
2022/08/25 07:54:09;;;;;;;23.05;7.43;;;;;;;24.42;59.33;94487.00;4171623;28;20124;-69
2022/08/25 07:56:14;;;;;;;19.07;8.30;;;;;;;24.32;59.85;94492.22;4173022;28;20056;-69
2022/08/25 07:58:17;;;;;;;21.38;8.75;;;;;;;24.10;60.79;94490.34;4172172;28;20053;-67
2022/08/25 08:00:19;;;;;;;20.10;7.82;;;;;;;24.08;60.84;94479.09;4158327;28;20053;-71
2022/08/25 08:02:21;;;;;;;18.60;7.82;;;;;;;24.14;60.96;94473.81;4173685;28;20098;-69
2022/08/25 08:04:25;;;;;;;23.92;8.20;;;;;;;24.21;60.68;94474.44;4172084;28;20049;-70
2022/08/25 08:06:28;;;;;;;;;;;;;;;24.49;60.26;94474.22;4158932;28;20060;-69
2022/08/25 08:08:30;;;;;;;15.50;7.75;;;;;;;24.66;59.72;94478.72;4153525;28;20241;-70
2022/08/25 08:10:33;;;;;;;14.48;6.80;;;;;;;24.78;59.21;94474.00;4176227;28;20055;-68
2022/08/25 08:12:55;;;;;;;21.02;7.90;;;;;;;24.93;58.33;94476.03;4174459;28;20337;-68
2022/08/25 08:14:57;;;;;;;29.77;8.52;;;;;;;25.14;58.04;94468.94;4172361;28;20114;-68
2022/08/25 08:17:05;;;;;;;19.50;7.53;;;;;;;25.22;57.15;94471.19;4170375;28;20484;-69
2022/08/25 08:19:07;;;;;;;21.27;7.93;;;;;;;25.12;57.38;94469.22;4150114;28;20145;-68
2022/08/25 08:21:21;;;;;;;19.92;8.15;;;;;;;25.13;57.71;94462.00;4166936;28;20469;-68
2022/08/25 08:23:26;;;;;;;21.88;7.20;;;;;;;25.26;57.23;94458.09;4156867;28;20053;-68
2022/08/25 08:25:28;;;;;;;22.27;7.55;;;;;;;25.46;57.04;94454.75;4168939;28;20041;-69
2022/08/25 08:27:31;;;;;;;18.60;7.75;;;;;;;25.36;56.78;94458.19;4169873;28;20049;-69
2022/08/25 08:29:36;;;;;;;19.73;7.75;;;;;;;24.89;57.62;94454.28;4159109;28;20064;-69
2022/08/25 08:31:38;;;;;;;22.00;7.05;;;;;;;24.69;58.17;94454.09;4170260;28;20396;-69
2022/08/25 08:33:50;;;;;;;25.33;7.22;;;;;;;24.70;58.52;94453.84;4156344;28;20053;-69
2022/08/25 08:36:00;;;;;;;21.38;7.43;;;;;;;24.72;58.26;94456.28;4167312;28;20049;-69
2022/08/25 08:38:05;;;;;;;24.85;6.95;;;;;;;24.65;58.15;94453.81;4151623;28;20049;-70
2022/08/25 08:40:18;;;;;;;23.70;7.63;;;;;;;24.18;60.06;94458.84;4169525;28;20451;-67
2022/08/25 08:42:52;;;;;;;25.40;8.35;;;;;;;24.17;60.59;94462.59;4171745;28;20136;-68
2022/08/25 08:45:18;;;;;;;26.52;7.75;;;;;;;24.22;59.44;94449.25;4171037;28;20530;-68
2022/08/25 08:47:44;;;;;;;28.63;7.07;;;;;;;24.33;59.39;94456.38;4166224;28;20433;-69
2022/08/25 08:49:55;;;;;;;25.83;7.32;;;;;;;24.30;58.65;94446.94;4173288;28;20056;-69
2022/08/25 08:52:00;;;;;;;36.40;7.88;;;;;;;24.45;58.96;94446.31;4172784;28;20053;-68
2022/08/25 08:54:12;;;;;;;20.30;7.93;;;;;;;24.58;58.72;94441.66;4157159;28;20115;-69
2022/08/25 08:56:31;;;;;;;20.38;6.75;;;;;;;24.69;58.71;94449.56;4157840;28;20145;-68
2022/08/25 08:58:36;;;;;;;18.77;7.25;;;;;;;24.81;58.88;94449.38;4171913;28;20064;-68
2022/08/25 09:00:47;;;;;;;24.02;6.95;;;;;;;24.91;58.68;94446.81;4172573;28;20056;-67
2022/08/25 09:02:57;;;;;;;25.02;6.35;;;;;;;24.77;56.96;94450.94;4173610;28;20140;-70
2022/08/25 09:05:10;;;;;;;25.40;6.93;;;;;;;24.66;56.96;94441.22;4173527;28;20130;-69
2022/08/25 09:07:17;;;;;;;23.40;7.60;;;;;;;24.67;57.20;94446.31;4138116;28;20111;-69
2022/08/25 09:09:28;;;;;;;25.83;6.53;;;;;;;24.73;57.23;94439.94;4175086;28;20135;-69
2022/08/25 09:12:04;;;;;;;28.83;7.35;;;;;;;24.75;57.01;94450.41;4174274;28;20465;-69
2022/08/25 09:14:18;;;;;;;27.27;7.07;;;;;;;24.88;56.92;94444.63;4174325;28;20067;-69
2022/08/25 09:19:01;;;;;;;22.52;5.90;;;;;;;25.11;56.15;94451.50;4157558;28;20151;-68
2022/08/25 09:21:15;;;;;;;22.10;6.65;;;;;;;25.19;55.68;94441.38;4174984;28;20056;-69
2022/08/25 09:23:33;;;;;;;24.00;6.93;;;;;;;25.07;54.42;94441.56;4173482;28;20045;-69
2022/08/25 09:25:54;;;;;;;28.13;6.88;;;;;;;25.04;54.51;94439.41;4164332;28;20099;-67
2022/08/25 09:28:05;;;;;;;26.05;6.15;;;;;;;25.01;54.50;94432.66;4166396;28;20055;-70
2022/08/25 09:30:15;;;;;;;29.00;7.90;;;;;;;25.11;54.99;94442.69;4159016;28;20083;-68
2022/08/25 09:32:17;;;;;;;24.42;6.38;;;;;;;25.26;54.54;94436.66;4158259;28;20050;-70
2022/08/25 09:34:30;;;;;;;25.77;5.95;;;;;;;25.40;53.52;94431.66;4163539;28;20111;-70
2022/08/25 09:36:33;;;;;;;28.80;5.75;;;;;;;25.49;52.35;94435.44;4168335;28;20045;-69
2022/08/25 09:38:39;;;;;;;23.75;6.47;;;;;;;25.42;52.69;94429.50;4175009;28;20088;-68
2022/08/25 09:40:44;;;;;;;25.17;6.33;;;;;;;25.45;53.23;94429.81;4157250;28;20064;-69
2022/08/25 09:42:50;;;;;;;21.92;6.38;;;;;;;25.54;53.26;94427.47;4167534;28;21218;-67
2022/08/25 09:44:59;;;;;;;28.25;6.70;;;;;;;25.70;52.96;94423.78;4175412;28;20060;-68
2022/08/25 09:47:12;;;;;;;31.60;7.03;;;;;;;25.88;52.33;94429.78;4175562;28;20456;-69
2022/08/25 09:49:15;;;;;;;20.17;6.75;;;;;;;25.86;52.05;94430.03;4154775;28;20056;-69
2022/08/25 09:51:28;;;;;;;23.85;6.65;;;;;;;25.79;52.01;94423.28;4155278;28;20051;-69
2022/08/25 09:53:48;;;;;;;19.90;5.53;;;;;;;25.61;50.60;94428.03;4156829;28;20493;-69
2022/08/25 09:56:06;;;;;;;23.60;6.28;;;;;;;25.58;50.93;94433.13;4140825;28;20147;-68